Time;durP1;ratioP1;P1;durP2;ratioP2;P2;SDS_P1;SDS_P2;PMS_P1;PMS_P2;Temp;Humidity;BMP_temperature;BMP_pressure;BME280_temperature;BME280_humidity;BME280_pressure;Samples;Min_cycle;Max_cycle;Signal;HPM_P1;HPM_P2
2021/06/09 00:00:23;;;;;;;527.58;415.17;;;;;;;;;;5034120;28;20462;-74
2021/06/09 00:02:49;;;;;;;526.75;415.67;;;;;;;;;;5033825;28;20060;-74
2021/06/09 00:05:16;;;;;;;527.72;420.20;;;;;;;;;;5042367;28;20029;-74
2021/06/09 00:07:41;;;;;;;529.85;430.95;;;;;;;;;;5043008;28;20028;-74
2021/06/09 00:10:08;;;;;;;528.60;421.63;;;;;;;;;;5037954;28;20373;-74
2021/06/09 00:12:34;;;;;;;528.80;420.33;;;;;;;;;;5054501;28;20476;-73
2021/06/09 00:15:01;;;;;;;530.45;430.58;;;;;;;;;;5040714;28;20506;-74
2021/06/09 00:17:27;;;;;;;524.97;416.08;;;;;;;;;;5052789;28;20089;-74
2021/06/09 00:23:03;;;;;;;522.78;408.98;;;;;;;;;;5048927;28;20474;-73
2021/06/09 00:25:29;;;;;;;524.90;415.83;;;;;;;;;;5052892;28;20453;-74
2021/06/09 00:27:56;;;;;;;522.53;410.75;;;;;;;;;;5054523;28;20021;-73
2021/06/09 00:30:33;;;;;;;525.47;417.23;;;;;;;;;;5052853;28;20024;-74
2021/06/09 00:33:01;;;;;;;522.17;407.70;;;;;;;;;;5052958;28;20082;-73
2021/06/09 00:35:28;;;;;;;524.63;412.95;;;;;;;;;;5050510;28;20465;-73
2021/06/09 00:37:57;;;;;;;520.85;405.23;;;;;;;;;;5052958;28;20412;-73
2021/06/09 00:40:30;;;;;;;521.45;407.30;;;;;;;;;;5054376;28;20102;-74
2021/06/09 00:43:02;;;;;;;520.10;403.13;;;;;;;;;;5040539;28;20372;-73
2021/06/09 00:45:28;;;;;;;520.90;405.60;;;;;;;;;;5052926;28;20090;-73
2021/06/09 00:47:54;;;;;;;521.90;404.92;;;;;;;;;;5053846;28;20040;-73
2021/06/09 00:50:20;;;;;;;522.53;406.23;;;;;;;;;;5052544;28;20025;-73
2021/06/09 00:52:46;;;;;;;523.88;408.95;;;;;;;;;;5052433;28;20094;-73
2021/06/09 00:55:12;;;;;;;523.50;409.10;;;;;;;;;;5054129;28;20028;-73
2021/06/09 00:57:40;;;;;;;524.20;411.92;;;;;;;;;;5053855;28;20025;-73
2021/06/09 01:00:10;;;;;;;522.35;404.92;;;;;;;;;;5052424;28;20021;-73
2021/06/09 01:05:43;;;;;;;520.20;396.08;;;;;;;;;;5035820;28;20381;-73
2021/06/09 01:08:09;;;;;;;522.65;407.45;;;;;;;;;;5053577;28;20643;-73
2021/06/09 01:10:35;;;;;;;523.78;410.35;;;;;;;;;;5051887;28;20429;-73
2021/06/09 01:13:02;;;;;;;520.83;404.27;;;;;;;;;;5043255;28;20044;-73
2021/06/09 01:15:29;;;;;;;518.95;399.50;;;;;;;;;;5033792;28;20021;-74
2021/06/09 01:27:09;;;;;;;521.05;396.88;;;;;;;;;;5033989;28;20105;-73
2021/06/09 01:29:35;;;;;;;519.67;397.77;;;;;;;;;;5049667;28;20075;-74
2021/06/09 01:32:01;;;;;;;522.67;404.23;;;;;;;;;;5038804;28;20017;-73
2021/06/09 01:34:27;;;;;;;520.58;399.90;;;;;;;;;;5053410;28;20092;-73
2021/06/09 01:36:53;;;;;;;523.47;405.33;;;;;;;;;;5051934;28;20056;-73
2021/06/09 01:39:19;;;;;;;520.30;394.27;;;;;;;;;;5052859;28;20035;-73
2021/06/09 01:41:47;;;;;;;519.63;397.00;;;;;;;;;;5052236;28;20159;-73
2021/06/09 01:44:13;;;;;;;515.47;382.67;;;;;;;;;;5053288;28;20480;-73
2021/06/09 01:46:39;;;;;;;521.63;395.00;;;;;;;;;;5051762;28;20036;-73
2021/06/09 01:49:10;;;;;;;521.22;393.05;;;;;;;;;;5052082;28;20369;-73
2021/06/09 01:51:36;;;;;;;519.15;392.25;;;;;;;;;;5053293;28;20067;-73
2021/06/09 01:54:03;;;;;;;520.80;394.58;;;;;;;;;;5069693;28;20445;-73
2021/06/09 01:56:29;;;;;;;521.90;396.67;;;;;;;;;;5073142;28;20505;-73
2021/06/09 01:58:55;;;;;;;522.30;395.27;;;;;;;;;;5064495;28;20499;-73
2021/06/09 02:01:21;;;;;;;520.30;392.75;;;;;;;;;;5051973;28;20116;-73
2021/06/09 02:03:47;;;;;;;520.80;396.30;;;;;;;;;;5052993;28;20057;-73
2021/06/09 02:06:13;;;;;;;522.42;396.35;;;;;;;;;;5050993;28;20021;-73
2021/06/09 02:08:39;;;;;;;523.63;401.25;;;;;;;;;;5033806;28;20033;-73
2021/06/09 02:11:05;;;;;;;522.50;392.83;;;;;;;;;;5053213;28;20033;-73
2021/06/09 02:13:32;;;;;;;524.65;394.40;;;;;;;;;;5053233;28;20028;-73
2021/06/09 02:16:00;;;;;;;529.08;401.38;;;;;;;;;;5035306;28;20025;-73
2021/06/09 02:18:26;;;;;;;530.80;404.13;;;;;;;;;;5047667;28;20021;-73
2021/06/09 02:20:57;;;;;;;529.15;401.70;;;;;;;;;;5031875;28;20026;-73
2021/06/09 02:23:28;;;;;;;533.50;404.65;;;;;;;;;;5046938;28;20036;-73
2021/06/09 02:25:57;;;;;;;536.95;407.42;;;;;;;;;;5051665;28;20032;-73
2021/06/09 02:28:24;;;;;;;546.58;413.50;;;;;;;;;;5051702;28;20413;-73
2021/06/09 02:30:50;;;;;;;630.50;482.83;;;;;;;;;;5053362;28;20083;-73
2021/06/09 02:33:18;;;;;;;617.10;470.95;;;;;;;;;;5055220;28;20040;-73
2021/06/09 02:35:46;;;;;;;555.97;417.52;;;;;;;;;;5054914;28;20082;-73
2021/06/09 02:38:13;;;;;;;539.15;400.60;;;;;;;;;;5056677;28;20361;-73
2021/06/09 02:40:40;;;;;;;534.95;401.70;;;;;;;;;;5055376;28;20429;-74
2021/06/09 02:43:06;;;;;;;524.00;386.08;;;;;;;;;;5056400;28;20028;-73
2021/06/09 02:45:33;;;;;;;525.88;391.83;;;;;;;;;;5056449;28;20036;-73
2021/06/09 02:48:00;;;;;;;522.42;386.70;;;;;;;;;;5056209;28;20392;-73
2021/06/09 02:50:26;;;;;;;523.17;389.60;;;;;;;;;;5056144;28;20028;-73
2021/06/09 02:52:55;;;;;;;523.15;388.85;;;;;;;;;;5055073;28;20051;-73
2021/06/09 02:55:27;;;;;;;520.00;381.02;;;;;;;;;;5055930;28;20507;-73
2021/06/09 02:57:59;;;;;;;521.63;384.48;;;;;;;;;;5056266;28;20032;-73
2021/06/09 03:00:27;;;;;;;522.13;388.17;;;;;;;;;;5056035;28;20032;-73
2021/06/09 03:03:12;;;;;;;520.33;382.48;;;;;;;;;;5054452;28;20022;-73
2021/06/09 03:05:48;;;;;;;518.60;376.30;;;;;;;;;;5054491;28;20083;-73
2021/06/09 03:08:19;;;;;;;521.30;381.30;;;;;;;;;;5056026;28;20060;-73
2021/06/09 03:10:48;;;;;;;523.03;389.30;;;;;;;;;;5055508;28;20076;-73
2021/06/09 03:13:25;;;;;;;521.30;377.65;;;;;;;;;;5055958;28;20033;-73
2021/06/09 03:19:00;;;;;;;521.75;375.58;;;;;;;;;;5036851;28;20484;-73
2021/06/09 03:21:40;;;;;;;525.25;385.33;;;;;;;;;;5038753;28;20116;-73
2021/06/09 03:24:15;;;;;;;522.97;382.27;;;;;;;;;;5047732;28;20021;-73
2021/06/09 03:27:03;;;;;;;523.05;381.58;;;;;;;;;;5052485;28;20037;-73
2021/06/09 03:29:29;;;;;;;522.72;387.60;;;;;;;;;;5055845;28;20029;-73
2021/06/09 03:32:00;;;;;;;520.88;381.42;;;;;;;;;;5055629;28;20452;-73
2021/06/09 03:34:32;;;;;;;524.47;382.98;;;;;;;;;;5055388;28;20036;-74
2021/06/09 03:37:01;;;;;;;523.30;387.15;;;;;;;;;;5050385;28;20025;-73
2021/06/09 03:39:46;;;;;;;522.20;382.15;;;;;;;;;;5065910;28;20028;-73
2021/06/09 03:42:15;;;;;;;522.55;383.85;;;;;;;;;;5054374;28;20021;-73
2021/06/09 03:44:43;;;;;;;521.70;383.23;;;;;;;;;;5055227;28;20021;-73
2021/06/09 03:47:11;;;;;;;524.17;390.70;;;;;;;;;;5054995;28;20021;-73
2021/06/09 03:49:38;;;;;;;523.13;391.90;;;;;;;;;;5045389;28;20032;-74
2021/06/09 03:52:04;;;;;;;523.78;388.13;;;;;;;;;;5046328;28;20061;-73
2021/06/09 03:54:31;;;;;;;525.22;392.23;;;;;;;;;;5054974;28;20346;-73
2021/06/09 03:56:58;;;;;;;523.70;391.98;;;;;;;;;;5050075;28;20021;-73
2021/06/09 03:59:25;;;;;;;525.38;392.90;;;;;;;;;;5046765;28;20447;-73
2021/06/09 04:01:52;;;;;;;523.50;391.05;;;;;;;;;;5052517;28;20021;-73
2021/06/09 04:04:19;;;;;;;523.17;385.83;;;;;;;;;;5051477;28;20025;-73
2021/06/09 04:06:46;;;;;;;525.83;391.65;;;;;;;;;;5041451;28;20060;-73
2021/06/09 04:09:14;;;;;;;523.13;385.00;;;;;;;;;;5069441;28;20029;-73
2021/06/09 04:11:42;;;;;;;526.78;393.48;;;;;;;;;;5054376;28;20039;-72
2021/06/09 04:14:09;;;;;;;525.72;391.17;;;;;;;;;;5040798;28;20032;-73
2021/06/09 04:16:36;;;;;;;529.00;399.48;;;;;;;;;;5053141;28;20079;-73
2021/06/09 04:19:04;;;;;;;527.95;391.60;;;;;;;;;;5052863;28;20021;-73
2021/06/09 04:21:35;;;;;;;523.85;384.92;;;;;;;;;;5054225;28;20021;-73
2021/06/09 04:24:01;;;;;;;524.47;388.70;;;;;;;;;;5053366;28;20131;-73
2021/06/09 04:26:27;;;;;;;525.22;392.15;;;;;;;;;;5046130;28;20049;-73
2021/06/09 04:28:55;;;;;;;524.08;389.00;;;;;;;;;;5052454;28;20469;-73
2021/06/09 04:31:21;;;;;;;525.03;393.30;;;;;;;;;;5053915;28;20038;-72
2021/06/09 04:37:09;;;;;;;525.92;392.17;;;;;;;;;;5054511;28;20028;-73
2021/06/09 04:39:38;;;;;;;528.90;403.08;;;;;;;;;;5052007;28;20083;-73
2021/06/09 04:42:05;;;;;;;529.55;406.88;;;;;;;;;;5054023;28;20118;-73
2021/06/09 04:44:32;;;;;;;528.80;407.10;;;;;;;;;;5053739;28;20032;-73
2021/06/09 04:46:58;;;;;;;526.25;400.73;;;;;;;;;;5053980;28;20104;-72
2021/06/09 04:49:34;;;;;;;529.22;407.10;;;;;;;;;;5049084;28;20052;-73
2021/06/09 04:52:01;;;;;;;527.08;402.05;;;;;;;;;;5049641;28;20028;-73
2021/06/09 04:54:28;;;;;;;531.45;411.25;;;;;;;;;;5053550;28;20354;-72
2021/06/09 04:56:54;;;;;;;534.85;409.75;;;;;;;;;;5053788;28;20017;-72
2021/06/09 04:59:21;;;;;;;544.72;422.88;;;;;;;;;;5047511;28;20496;-73
2021/06/09 05:01:48;;;;;;;588.50;472.60;;;;;;;;;;5049868;28;20052;-72
2021/06/09 05:04:14;;;;;;;555.80;433.48;;;;;;;;;;5052553;28;20071;-72
2021/06/09 05:06:40;;;;;;;559.75;440.80;;;;;;;;;;5053658;28;20032;-73
2021/06/09 05:09:07;;;;;;;560.35;447.60;;;;;;;;;;5049459;28;20461;-72
2021/06/09 05:11:46;;;;;;;544.25;433.75;;;;;;;;;;5053790;28;20033;-73
2021/06/09 05:14:18;;;;;;;540.60;431.67;;;;;;;;;;5039961;28;20064;-73
2021/06/09 05:16:47;;;;;;;531.03;423.45;;;;;;;;;;5032461;28;20461;-73
2021/06/09 05:19:15;;;;;;;527.67;421.50;;;;;;;;;;5032687;28;20104;-73
2021/06/09 05:22:05;;;;;;;526.92;421.50;;;;;;;;;;5049114;28;20033;-73
2021/06/09 05:24:32;;;;;;;530.10;425.05;;;;;;;;;;5034855;28;20336;-73
2021/06/09 05:26:59;;;;;;;527.03;425.00;;;;;;;;;;5053556;28;20029;-73
2021/06/09 05:29:26;;;;;;;527.42;429.90;;;;;;;;;;5052877;28;20033;-73
2021/06/09 05:31:53;;;;;;;528.15;431.98;;;;;;;;;;5052101;28;20079;-73
2021/06/09 05:34:20;;;;;;;527.33;432.40;;;;;;;;;;5048732;28;20022;-73
2021/06/09 05:36:46;;;;;;;528.70;432.27;;;;;;;;;;5051825;28;20021;-73
2021/06/09 05:39:14;;;;;;;526.88;427.77;;;;;;;;;;5053522;28;20025;-73
2021/06/09 05:41:41;;;;;;;529.05;437.38;;;;;;;;;;5048798;28;20037;-73
2021/06/09 05:44:07;;;;;;;526.80;431.73;;;;;;;;;;5049489;28;20416;-73
2021/06/09 05:46:33;;;;;;;524.70;432.35;;;;;;;;;;5032081;28;20114;-73
2021/06/09 05:48:59;;;;;;;527.85;440.02;;;;;;;;;;5033396;28;20115;-73
2021/06/09 05:51:25;;;;;;;528.97;440.70;;;;;;;;;;5032167;28;20065;-74
2021/06/09 05:53:55;;;;;;;531.22;440.90;;;;;;;;;;5031988;28;20041;-74
2021/06/09 05:56:21;;;;;;;528.85;439.80;;;;;;;;;;5053057;28;20096;-74
2021/06/09 05:58:47;;;;;;;529.40;442.27;;;;;;;;;;5052057;28;20361;-74
2021/06/09 06:01:15;;;;;;;530.58;448.77;;;;;;;;;;5051887;28;20029;-74
2021/06/09 06:09:48;;;;;;;529.38;450.13;;;;;;;;;;5057604;28;20067;-74
2021/06/09 06:12:14;;;;;;;529.92;451.65;;;;;;;;;;5055848;28;20368;-74
2021/06/09 06:14:40;;;;;;;530.05;453.30;;;;;;;;;;5055607;28;20029;-74
2021/06/09 06:17:08;;;;;;;528.03;453.13;;;;;;;;;;5055728;28;20370;-74
2021/06/09 06:19:37;;;;;;;530.38;456.52;;;;;;;;;;5056023;28;20396;-74
2021/06/09 06:22:22;;;;;;;531.92;458.15;;;;;;;;;;5037074;28;20075;-74
2021/06/09 06:24:49;;;;;;;530.53;456.13;;;;;;;;;;5046774;28;20328;-74
2021/06/09 06:27:16;;;;;;;531.72;463.05;;;;;;;;;;5055766;28;20025;-74
2021/06/09 06:29:46;;;;;;;532.05;466.38;;;;;;;;;;5055665;28;20428;-74
2021/06/09 06:32:14;;;;;;;531.00;466.05;;;;;;;;;;5051772;28;20457;-74
2021/06/09 06:34:46;;;;;;;534.95;475.90;;;;;;;;;;5068806;28;20025;-74
2021/06/09 06:37:12;;;;;;;528.03;461.00;;;;;;;;;;5055346;28;20076;-74
2021/06/09 06:39:40;;;;;;;535.00;475.85;;;;;;;;;;5055313;28;20029;-73
2021/06/09 06:42:06;;;;;;;532.20;473.38;;;;;;;;;;5036501;28;20025;-75
2021/06/09 06:44:33;;;;;;;540.00;480.42;;;;;;;;;;5035671;28;20359;-74
2021/06/09 06:46:59;;;;;;;534.08;474.75;;;;;;;;;;5036849;28;20024;-76
2021/06/09 06:49:28;;;;;;;543.22;483.52;;;;;;;;;;5054102;28;20025;-73
2021/06/09 06:51:54;;;;;;;545.85;485.85;;;;;;;;;;5055295;28;20086;-73
2021/06/09 06:54:20;;;;;;;551.47;491.33;;;;;;;;;;5054510;28;20045;-74
2021/06/09 06:56:50;;;;;;;563.63;502.60;;;;;;;;;;5056213;28;20074;-73
2021/06/09 06:59:16;;;;;;;558.83;498.17;;;;;;;;;;5056021;28;20487;-73
2021/06/09 07:01:43;;;;;;;558.47;497.77;;;;;;;;;;5056084;28;20025;-74
2021/06/09 07:07:37;;;;;;;552.97;492.52;;;;;;;;;;5055682;28;20094;-73
2021/06/09 07:10:07;;;;;;;547.42;488.00;;;;;;;;;;5054120;28;20032;-73
2021/06/09 07:12:35;;;;;;;561.42;501.05;;;;;;;;;;5054108;28;20022;-73
2021/06/09 07:15:04;;;;;;;563.08;502.83;;;;;;;;;;5055422;28;20024;-74
2021/06/09 07:17:30;;;;;;;561.58;501.55;;;;;;;;;;5054382;28;20096;-73
2021/06/09 07:20:27;;;;;;;564.92;504.48;;;;;;;;;;5055566;28;20056;-75
2021/06/09 07:22:57;;;;;;;562.03;501.48;;;;;;;;;;5050792;28;20027;-74
2021/06/09 07:25:24;;;;;;;567.28;506.40;;;;;;;;;;5063856;28;20025;-75
2021/06/09 07:27:55;;;;;;;577.50;515.95;;;;;;;;;;5054164;28;20480;-75
2021/06/09 07:30:41;;;;;;;602.83;539.03;;;;;;;;;;5053802;28;20060;-74
2021/06/09 07:33:08;;;;;;;610.97;545.97;;;;;;;;;;5055083;28;20024;-74
2021/06/09 07:35:36;;;;;;;650.35;582.45;;;;;;;;;;5055275;28;20039;-74
2021/06/09 07:38:06;;;;;;;676.33;605.70;;;;;;;;;;5054457;28;20024;-74
2021/06/09 07:40:34;;;;;;;583.53;521.50;;;;;;;;;;5060316;28;20021;-74
2021/06/09 07:43:08;;;;;;;584.08;522.08;;;;;;;;;;5054846;28;20043;-75
2021/06/09 07:45:35;;;;;;;577.35;516.22;;;;;;;;;;5070149;28;20020;-75
2021/06/09 07:48:02;;;;;;;578.10;517.28;;;;;;;;;;5075002;28;20021;-74
2021/06/09 07:57:06;;;;;;;571.10;510.33;;;;;;;;;;4991677;28;20037;-75
2021/06/09 07:59:33;;;;;;;579.28;518.35;;;;;;;;;;4977245;28;20030;-74
2021/06/09 08:01:59;;;;;;;584.55;523.28;;;;;;;;;;4993599;28;20049;-75
2021/06/09 08:04:25;;;;;;;580.63;520.30;;;;;;;;;;4976174;28;20034;-75
2021/06/09 08:06:57;;;;;;;580.95;520.78;;;;;;;;;;4992767;28;20132;-74
2021/06/09 08:09:26;;;;;;;578.80;518.47;;;;;;;;;;4978994;28;20030;-74
2021/06/09 08:11:53;;;;;;;579.13;519.30;;;;;;;;;;4973266;28;20113;-74
2021/06/09 08:14:21;;;;;;;572.63;513.28;;;;;;;;;;4957112;28;20471;-74
2021/06/09 08:16:47;;;;;;;573.63;514.65;;;;;;;;;;4969982;28;20034;-77
2021/06/09 08:19:17;;;;;;;577.15;518.17;;;;;;;;;;4989025;28;20042;-74
2021/06/09 08:21:43;;;;;;;;;;;;;;;;;;4992606;28;20028;-74
2021/06/09 08:24:09;;;;;;;559.72;501.42;;;;;;;;;;4995040;28;20401;-75
2021/06/09 08:26:36;;;;;;;570.53;512.00;;;;;;;;;;5032938;28;20478;-75
2021/06/09 08:29:02;;;;;;;571.95;513.38;;;;;;;;;;5033861;28;20389;-75
2021/06/09 08:31:40;;;;;;;580.45;521.83;;;;;;;;;;5060960;28;20025;-75
2021/06/09 08:34:07;;;;;;;583.92;525.28;;;;;;;;;;5050790;28;20032;-75
2021/06/09 08:36:34;;;;;;;579.20;520.88;;;;;;;;;;5056940;28;20028;-74
2021/06/09 08:39:03;;;;;;;584.80;526.13;;;;;;;;;;5043001;28;20017;-75
2021/06/09 08:41:36;;;;;;;587.92;528.95;;;;;;;;;;5032959;28;20098;-75
2021/06/09 08:44:26;;;;;;;587.95;529.35;;;;;;;;;;5012677;28;20030;-76
2021/06/09 08:46:57;;;;;;;586.65;528.10;;;;;;;;;;5023622;28;20042;-77
2021/06/09 08:49:25;;;;;;;598.03;539.30;;;;;;;;;;5022612;28;20034;-76
2021/06/09 08:51:53;;;;;;;602.22;543.80;;;;;;;;;;5016954;28;20101;-77
2021/06/09 08:54:19;;;;;;;615.47;556.45;;;;;;;;;;4992365;28;20030;-77
2021/06/09 08:56:46;;;;;;;615.65;557.13;;;;;;;;;;4994715;28;20520;-78
2021/06/09 08:59:21;;;;;;;614.47;556.17;;;;;;;;;;4995677;28;20054;-77
2021/06/09 09:01:48;;;;;;;617.90;559.35;;;;;;;;;;5012099;28;20425;-78
2021/06/09 09:04:14;;;;;;;611.60;553.33;;;;;;;;;;4995521;28;20367;-77
2021/06/09 09:09:43;;;;;;;612.30;553.85;;;;;;;;;;4995295;28;20405;-77
2021/06/09 09:12:10;;;;;;;620.63;561.90;;;;;;;;;;4995950;28;20022;-77
2021/06/09 09:14:47;;;;;;;629.85;571.28;;;;;;;;;;4980459;28;20113;-78
2021/06/09 09:17:15;;;;;;;634.78;576.15;;;;;;;;;;4961235;28;20044;-78
2021/06/09 09:19:43;;;;;;;632.28;572.47;;;;;;;;;;4984265;28;20117;-77
2021/06/09 09:27:27;;;;;;;659.17;600.08;;;;;;;;;;5040974;28;20032;-78
2021/06/09 09:30:07;;;;;;;672.10;612.00;;;;;;;;;;4989000;28;20023;-78
2021/06/09 09:32:33;;;;;;;;;;;;;;;;;;4975348;28;20022;-76
2021/06/09 09:35:11;;;;;;;679.70;620.40;;;;;;;;;;4981842;28;20258;-78
2021/06/09 09:37:37;;;;;;;690.78;631.30;;;;;;;;;;5025445;28;20024;-78
2021/06/09 09:40:18;;;;;;;702.28;642.63;;;;;;;;;;4974703;28;20027;-78
2021/06/09 09:49:25;;;;;;;700.97;641.33;;;;;;;;;;4973010;28;20030;-77
2021/06/09 09:52:02;;;;;;;705.55;645.80;;;;;;;;;;4969533;28;20019;-77
2021/06/09 09:54:34;;;;;;;718.78;658.75;;;;;;;;;;4963560;28;20064;-78
2021/06/09 09:57:01;;;;;;;725.85;665.60;;;;;;;;;;4994172;28;20100;-76
2021/06/09 09:59:35;;;;;;;748.67;688.03;;;;;;;;;;4993373;28;20026;-76
2021/06/09 10:02:21;;;;;;;756.30;695.60;;;;;;;;;;4973829;28;20018;-76
2021/06/09 10:04:52;;;;;;;755.50;694.90;;;;;;;;;;4973855;28;20026;-76
2021/06/09 10:07:18;;;;;;;759.65;699.08;;;;;;;;;;4983401;28;20589;-77
2021/06/09 10:09:47;;;;;;;755.42;694.92;;;;;;;;;;4996936;28;20027;-77
2021/06/09 10:12:16;;;;;;;766.70;705.55;;;;;;;;;;4981156;28;20050;-77
2021/06/09 10:14:50;;;;;;;764.53;703.63;;;;;;;;;;5004336;28;20068;-76
2021/06/09 10:17:24;;;;;;;777.22;715.95;;;;;;;;;;5004062;28;20367;-78
2021/06/09 10:20:14;;;;;;;775.00;714.03;;;;;;;;;;4992435;28;20543;-76
2021/06/09 10:22:44;;;;;;;781.75;720.58;;;;;;;;;;4997615;28;20110;-77
2021/06/09 10:25:12;;;;;;;780.90;719.63;;;;;;;;;;4985219;28;20439;-76
2021/06/09 10:27:49;;;;;;;779.75;718.20;;;;;;;;;;4987265;28;20034;-77
2021/06/09 10:30:36;;;;;;;782.72;721.15;;;;;;;;;;4996813;28;20084;-78
2021/06/09 10:33:03;;;;;;;778.90;717.35;;;;;;;;;;4989260;28;20424;-77
2021/06/09 10:35:30;;;;;;;786.88;724.90;;;;;;;;;;4978412;28;20478;-78
2021/06/09 10:37:59;;;;;;;788.65;726.80;;;;;;;;;;4969304;28;20033;-77
2021/06/09 10:40:27;;;;;;;805.90;743.17;;;;;;;;;;4976929;28;20528;-78
2021/06/09 10:43:05;;;;;;;796.20;733.70;;;;;;;;;;4967348;28;20614;-77
2021/06/09 10:45:32;;;;;;;801.38;739.17;;;;;;;;;;4986146;28;20517;-77
2021/06/09 10:48:04;;;;;;;800.28;738.40;;;;;;;;;;4973456;28;20037;-75
2021/06/09 10:50:30;;;;;;;787.88;725.22;;;;;;;;;;4969950;28;20135;-77
2021/06/09 10:52:56;;;;;;;767.13;706.20;;;;;;;;;;4993055;28;20498;-77
2021/06/09 10:55:50;;;;;;;771.10;709.72;;;;;;;;;;4986100;28;20488;-77
2021/06/09 10:58:16;;;;;;;754.80;693.28;;;;;;;;;;4966986;28;20033;-77
2021/06/09 11:00:44;;;;;;;769.63;707.85;;;;;;;;;;4963139;28;20482;-77
2021/06/09 11:03:11;;;;;;;754.40;692.13;;;;;;;;;;4974927;28;20459;-75
2021/06/09 11:05:37;;;;;;;761.55;700.00;;;;;;;;;;4986195;28;20042;-77
2021/06/09 11:08:18;;;;;;;746.63;685.75;;;;;;;;;;5014545;28;20386;-77
2021/06/09 11:10:49;;;;;;;748.17;687.08;;;;;;;;;;4963335;28;20092;-76
2021/06/09 11:13:31;;;;;;;748.05;687.03;;;;;;;;;;4973551;28;20133;-77
2021/06/09 11:16:06;;;;;;;749.88;688.53;;;;;;;;;;4998106;28;20477;-77
2021/06/09 11:21:37;;;;;;;729.88;669.40;;;;;;;;;;5001612;28;20155;-77
2021/06/09 11:24:11;;;;;;;727.33;666.75;;;;;;;;;;4991438;28;20045;-77
2021/06/09 11:26:40;;;;;;;728.28;667.47;;;;;;;;;;4991163;28;20079;-76
2021/06/09 11:29:27;;;;;;;719.70;659.30;;;;;;;;;;5025597;28;20381;-77
2021/06/09 11:32:12;;;;;;;723.80;663.30;;;;;;;;;;4984187;28;20022;-77
2021/06/09 11:34:56;;;;;;;718.97;658.65;;;;;;;;;;4959102;28;20049;-76
2021/06/09 11:37:22;;;;;;;725.05;664.42;;;;;;;;;;4979440;28;20415;-77
2021/06/09 11:39:59;;;;;;;733.85;673.00;;;;;;;;;;5026297;28;20105;-78
2021/06/09 11:42:26;;;;;;;734.20;673.35;;;;;;;;;;4986800;28;20027;-79
2021/06/09 11:44:52;;;;;;;746.42;685.20;;;;;;;;;;4975818;28;20106;-77
2021/06/09 11:47:19;;;;;;;741.83;680.78;;;;;;;;;;4985366;28;20196;-77
2021/06/09 11:49:47;;;;;;;732.13;671.67;;;;;;;;;;5023363;28;20873;-77
2021/06/09 11:52:32;;;;;;;743.45;682.33;;;;;;;;;;4972773;28;20058;-78
2021/06/09 11:55:09;;;;;;;751.17;690.10;;;;;;;;;;4973913;28;20265;-77
2021/06/09 11:57:35;;;;;;;753.97;693.00;;;;;;;;;;4990868;28;20366;-77
2021/06/09 12:00:05;;;;;;;740.90;680.10;;;;;;;;;;4967620;28;20030;-77
2021/06/09 12:02:33;;;;;;;739.25;678.30;;;;;;;;;;4987602;28;20023;-77
2021/06/09 12:04:59;;;;;;;743.60;682.50;;;;;;;;;;4994256;28;20026;-79
2021/06/09 12:07:33;;;;;;;740.35;679.45;;;;;;;;;;4973527;28;20386;-76
2021/06/09 12:10:02;;;;;;;755.47;693.60;;;;;;;;;;4991939;28;20023;-79
2021/06/09 12:12:30;;;;;;;769.13;706.83;;;;;;;;;;4976207;28;20705;-75
2021/06/09 12:14:58;;;;;;;775.17;713.15;;;;;;;;;;4975880;28;20022;-77
2021/06/09 12:17:28;;;;;;;770.60;709.13;;;;;;;;;;4977698;28;20031;-78
2021/06/09 12:20:07;;;;;;;772.65;711.30;;;;;;;;;;4991525;28;20099;-77
2021/06/09 12:22:47;;;;;;;761.47;700.38;;;;;;;;;;4991858;28;20028;-79
2021/06/09 12:25:14;;;;;;;757.67;696.45;;;;;;;;;;4956873;28;20050;-77
2021/06/09 12:27:41;;;;;;;742.75;681.45;;;;;;;;;;5020878;28;20115;-77
2021/06/09 12:30:20;;;;;;;724.63;664.13;;;;;;;;;;4981684;28;20018;-77
2021/06/09 12:33:02;;;;;;;713.93;653.73;;;;;;;;;;4999702;28;20122;-78
2021/06/09 12:35:30;;;;;;;706.15;645.92;;;;;;;;;;5057333;28;20016;-78
2021/06/09 12:38:02;;;;;;;716.25;655.83;;;;;;;;;;5014181;28;20042;-78
2021/06/09 12:40:30;;;;;;;725.25;664.70;;;;;;;;;;4990140;28;20027;-78
2021/06/09 12:42:59;;;;;;;736.20;675.50;;;;;;;;;;5001746;28;20060;-77
2021/06/09 12:45:27;;;;;;;745.75;685.25;;;;;;;;;;5032682;28;20105;-77
2021/06/09 12:47:53;;;;;;;764.05;703.13;;;;;;;;;;4998636;28;20038;-77
2021/06/09 12:50:23;;;;;;;764.80;703.92;;;;;;;;;;4970154;28;20018;-77
2021/06/09 12:52:53;;;;;;;764.78;703.58;;;;;;;;;;4992500;28;20091;-77
2021/06/09 12:55:44;;;;;;;756.13;695.65;;;;;;;;;;4968964;28;20027;-77
2021/06/09 12:58:10;;;;;;;768.70;707.55;;;;;;;;;;4968319;28;20079;-77
2021/06/09 13:00:38;;;;;;;773.38;712.25;;;;;;;;;;4966768;28;20054;-78
2021/06/09 13:03:20;;;;;;;783.05;721.80;;;;;;;;;;4972416;28;20034;-78
2021/06/09 13:06:20;;;;;;;789.42;727.80;;;;;;;;;;4970741;28;20069;-76
2021/06/09 13:08:52;;;;;;;790.50;728.95;;;;;;;;;;4982944;28;20038;-77
2021/06/09 13:11:23;;;;;;;772.28;711.25;;;;;;;;;;4993867;28;20042;-78
2021/06/09 13:13:52;;;;;;;759.35;698.50;;;;;;;;;;5031750;28;20113;-78
2021/06/09 13:16:38;;;;;;;753.65;692.33;;;;;;;;;;4968429;28;20031;-78
2021/06/09 13:19:15;;;;;;;742.08;681.25;;;;;;;;;;4958754;28;20117;-79
2021/06/09 13:21:46;;;;;;;758.95;697.08;;;;;;;;;;4974398;28;20022;-77
2021/06/09 13:24:19;;;;;;;766.15;703.50;;;;;;;;;;4979051;28;20020;-78
2021/06/09 13:26:52;;;;;;;762.38;700.35;;;;;;;;;;4955194;28;20050;-78
2021/06/09 13:29:20;;;;;;;770.45;707.88;;;;;;;;;;4955645;28;20035;-78
2021/06/09 13:31:46;;;;;;;782.63;719.42;;;;;;;;;;4955309;28;20031;-77
2021/06/09 13:34:13;;;;;;;792.13;728.45;;;;;;;;;;4995505;28;20039;-78
2021/06/09 13:36:39;;;;;;;774.00;711.05;;;;;;;;;;5013816;28;20022;-78
2021/06/09 13:39:08;;;;;;;748.35;686.78;;;;;;;;;;4987194;28;20027;-78
2021/06/09 13:41:35;;;;;;;768.15;705.08;;;;;;;;;;5016926;28;20018;-79
2021/06/09 13:44:01;;;;;;;748.90;687.05;;;;;;;;;;4990797;28;20109;-78
2021/06/09 13:46:40;;;;;;;739.88;678.65;;;;;;;;;;4990673;28;20062;-78
2021/06/09 13:49:06;;;;;;;752.70;690.90;;;;;;;;;;5020294;28;20090;-79
2021/06/09 13:51:36;;;;;;;789.20;725.28;;;;;;;;;;4988960;28;20038;-79
2021/06/09 13:54:06;;;;;;;756.88;695.40;;;;;;;;;;4991368;28;20034;-79
2021/06/09 13:56:32;;;;;;;752.95;691.75;;;;;;;;;;5027576;28;20076;-78
2021/06/09 13:59:13;;;;;;;747.88;686.85;;;;;;;;;;4985242;28;20030;-78
2021/06/09 14:01:40;;;;;;;748.30;687.72;;;;;;;;;;4993610;28;20466;-75
2021/06/09 14:04:09;;;;;;;745.05;684.38;;;;;;;;;;4991365;28;20047;-77
2021/06/09 14:06:35;;;;;;;749.05;687.75;;;;;;;;;;5055890;28;20465;-78
2021/06/09 14:09:10;;;;;;;986.60;895.30;;;;;;;;;;4985779;28;20033;-78
2021/06/09 14:11:54;;;;;;;1220.05;999.90;;;;;;;;;;5036636;28;20081;-78
2021/06/09 14:14:24;;;;;;;1101.10;999.90;;;;;;;;;;4962484;28;20038;-79
2021/06/09 14:17:02;;;;;;;717.67;656.38;;;;;;;;;;5065340;28;20055;-78
2021/06/09 14:19:32;;;;;;;755.53;691.30;;;;;;;;;;5033643;28;20052;-77
2021/06/09 14:21:58;;;;;;;837.20;766.15;;;;;;;;;;4975000;28;20477;-78
2021/06/09 14:24:27;;;;;;;776.70;710.90;;;;;;;;;;4962484;28;20043;-79
2021/06/09 14:26:55;;;;;;;770.50;704.83;;;;;;;;;;4972330;28;20047;-76
2021/06/09 14:29:21;;;;;;;919.80;843.97;;;;;;;;;;5028289;28;20058;-78
2021/06/09 14:31:47;;;;;;;837.10;767.33;;;;;;;;;;4971306;28;20087;-78
2021/06/09 14:34:25;;;;;;;1102.50;999.90;;;;;;;;;;4993306;28;20818;-78
2021/06/09 14:37:09;;;;;;;963.60;884.92;;;;;;;;;;5000600;28;20117;-78
2021/06/09 14:39:35;;;;;;;1022.20;938.35;;;;;;;;;;5032348;28;20059;-79
2021/06/09 14:42:01;;;;;;;1115.30;999.90;;;;;;;;;;5070251;28;20043;-78
2021/06/09 14:44:37;;;;;;;1032.55;948.35;;;;;;;;;;5029765;28;20083;-79
2021/06/09 14:49:45;;;;;;;1047.28;961.95;;;;;;;;;;4975105;28;20031;-78
2021/06/09 14:52:25;;;;;;;1022.85;938.33;;;;;;;;;;4974645;28;20362;-79
2021/06/09 14:57:36;;;;;;;976.20;893.80;;;;;;;;;;5035954;28;19969;-78
2021/06/09 15:00:06;;;;;;;1022.22;936.83;;;;;;;;;;4973879;28;20443;-79
2021/06/09 15:02:33;;;;;;;1054.50;966.05;;;;;;;;;;4991295;28;20046;-79
2021/06/09 15:05:00;;;;;;;1024.75;938.67;;;;;;;;;;4979585;28;20033;-78
2021/06/09 15:07:42;;;;;;;943.17;862.97;;;;;;;;;;4990510;28;20634;-79
2021/06/09 15:10:09;;;;;;;1004.65;919.50;;;;;;;;;;4971784;28;20044;-77